createdAt,value
2023-02-19T00:00:49.259Z,1.65
2023-02-19T00:03:57.053Z,1.73
2023-02-19T00:07:02.015Z,1.80
2023-02-19T00:10:04.934Z,1.00
2023-02-19T00:13:08.783Z,1.93
2023-02-19T00:16:15.095Z,2.13
2023-02-19T00:19:20.415Z,1.35
2023-02-19T00:22:23.213Z,1.70
2023-02-19T00:25:27.354Z,3.33
2023-02-19T00:28:30.148Z,1.43
2023-02-19T00:31:35.667Z,2.78
2023-02-19T00:34:39.545Z,1.20
2023-02-19T00:37:42.174Z,1.23
2023-02-19T00:40:45.103Z,0.90
2023-02-19T00:43:50.354Z,0.83
2023-02-19T00:46:52.948Z,0.70
2023-02-19T00:49:56.009Z,1.02
2023-02-19T00:52:58.571Z,1.15
2023-02-19T00:56:01.321Z,2.27
2023-02-19T00:59:04.763Z,0.57
2023-02-19T01:02:07.309Z,1.08
2023-02-19T01:05:10.116Z,0.82
2023-02-19T01:08:12.832Z,1.05
2023-02-19T01:11:15.864Z,1.30
2023-02-19T01:14:18.579Z,0.70
2023-02-19T01:17:21.604Z,0.70
2023-02-19T01:20:24.852Z,0.60
2023-02-19T01:23:27.556Z,0.88
2023-02-19T01:26:32.345Z,0.63
2023-02-19T01:29:36.745Z,0.63
2023-02-19T01:32:39.379Z,0.85
2023-02-19T01:35:42.378Z,0.65
2023-02-19T01:38:46.667Z,0.80
2023-02-19T01:41:49.232Z,0.53
2023-02-19T01:44:51.834Z,0.57
2023-02-19T01:48:42.154Z,0.88
2023-02-19T01:51:48.340Z,0.40
2023-02-19T01:54:51.122Z,0.65
2023-02-19T01:57:56.443Z,0.50
2023-02-19T02:01:02.608Z,0.70
2023-02-19T02:04:08.003Z,0.60
2023-02-19T02:07:30.157Z,0.55
2023-02-19T02:10:35.743Z,0.70
2023-02-19T02:13:39.954Z,1.27
2023-02-19T02:16:45.506Z,0.50
2023-02-19T02:20:10.668Z,0.60
2023-02-19T02:23:33.209Z,1.20
2023-02-19T02:26:51.338Z,0.65
2023-02-19T02:30:17.540Z,0.90
2023-02-19T02:33:44.587Z,2.23
2023-02-19T02:36:52.477Z,0.75
2023-02-19T02:39:58.590Z,0.77
2023-02-19T02:43:02.902Z,0.82
2023-02-19T02:46:06.703Z,1.00
2023-02-19T02:49:21.437Z,0.83
2023-02-19T02:52:42.894Z,1.20
2023-02-19T02:55:49.710Z,2.13
2023-02-19T02:58:54.030Z,0.85
2023-02-19T03:02:14.749Z,0.60
2023-02-19T03:05:44.973Z,0.87
2023-02-19T03:08:57.004Z,1.10
2023-02-19T03:12:21.957Z,0.70
2023-02-19T03:15:49.909Z,1.17
2023-02-19T03:19:15.969Z,0.83
2023-02-19T03:22:40.596Z,1.33
2023-02-19T03:26:02.906Z,0.63
2023-02-19T03:29:24.295Z,1.08
2023-02-19T03:32:36.473Z,0.90
2023-02-19T03:35:51.029Z,0.80
2023-02-19T03:39:06.710Z,0.97
2023-02-19T03:42:38.456Z,0.77
2023-02-19T03:45:57.090Z,0.75
2023-02-19T03:49:09.999Z,0.80
2023-02-19T03:52:31.565Z,1.00
2023-02-19T03:56:14.227Z,1.23
2023-02-19T03:59:42.534Z,0.95
2023-02-19T04:03:17.674Z,1.08
2023-02-19T04:06:27.483Z,0.55
2023-02-19T04:09:40.871Z,1.50
2023-02-19T04:12:54.173Z,0.60
2023-02-19T04:16:03.582Z,0.82
2023-02-19T04:19:11.612Z,1.02
2023-02-19T04:22:18.931Z,0.95
2023-02-19T04:25:23.979Z,0.77
2023-02-19T04:28:29.053Z,1.00
2023-02-19T04:31:35.506Z,0.73
2023-02-19T04:34:38.266Z,0.68
2023-02-19T04:37:41.246Z,0.55
2023-02-19T04:40:44.272Z,0.70
2023-02-19T04:43:47.228Z,0.70
2023-02-19T04:46:49.821Z,1.20
2023-02-19T04:49:53.076Z,0.77
2023-02-19T04:52:57.255Z,0.60
2023-02-19T04:56:27.705Z,0.67
2023-02-19T04:59:31.379Z,0.70
2023-02-19T05:02:35.093Z,0.82
2023-02-19T05:05:37.608Z,0.68
2023-02-19T05:08:40.774Z,1.10
2023-02-19T05:11:43.429Z,0.60
2023-02-19T05:14:46.374Z,1.30
2023-02-19T05:17:49.009Z,1.23
2023-02-19T05:20:52.443Z,0.90
2023-02-19T05:23:55.043Z,0.85
2023-02-19T05:26:57.669Z,0.70
2023-02-19T05:30:01.113Z,1.70
2023-02-19T05:33:04.241Z,1.02
2023-02-19T05:36:10.704Z,0.65
2023-02-19T05:39:13.568Z,0.73
2023-02-19T05:42:16.212Z,0.77
2023-02-19T05:45:19.844Z,0.63
2023-02-19T05:48:22.369Z,0.90
2023-02-19T05:51:27.228Z,0.82
2023-02-19T05:54:30.623Z,0.95
2023-02-19T05:57:34.392Z,0.73
2023-02-19T06:00:39.190Z,1.17
2023-02-19T06:03:43.361Z,1.30
2023-02-19T06:06:47.233Z,0.88
2023-02-19T06:09:54.942Z,0.75
2023-02-19T06:12:58.333Z,1.27
2023-02-19T06:16:04.600Z,1.07
2023-02-19T06:19:07.602Z,0.77
2023-02-19T06:22:10.340Z,0.60
2023-02-19T06:25:12.918Z,0.75
2023-02-19T06:28:15.630Z,0.70
2023-02-19T06:31:20.552Z,3.00
2023-02-19T06:34:23.776Z,0.80
2023-02-19T06:37:26.622Z,0.75
2023-02-19T06:40:29.456Z,1.88
2023-02-19T06:43:33.330Z,1.10
2023-02-19T06:46:36.172Z,1.10
2023-02-19T06:49:41.878Z,1.00
2023-02-19T06:52:44.453Z,1.50
2023-02-19T06:56:05.911Z,1.45
2023-02-19T06:59:11.672Z,1.30
2023-02-19T07:02:14.337Z,1.53
2023-02-19T07:05:16.969Z,2.40
2023-02-19T07:08:21.197Z,2.00
2023-02-19T07:11:24.474Z,2.00
2023-02-19T07:14:27.189Z,1.83
2023-02-19T07:17:29.699Z,1.53
2023-02-19T07:20:33.461Z,1.40
2023-02-19T07:23:38.152Z,3.05
2023-02-19T07:26:40.770Z,1.20
2023-02-19T07:29:45.609Z,1.70
2023-02-19T07:32:48.374Z,1.03
2023-02-19T07:35:51.391Z,1.52
2023-02-19T07:38:56.617Z,1.20
2023-02-19T07:41:59.203Z,1.05
2023-02-19T07:45:02.776Z,1.13
2023-02-19T07:48:05.864Z,1.87
2023-02-19T07:51:13.424Z,1.15
2023-02-19T07:54:16.431Z,0.90
2023-02-19T07:57:18.949Z,2.92
2023-02-19T08:00:25.863Z,0.63
2023-02-19T08:03:29.136Z,0.87
2023-02-19T08:06:31.751Z,0.77
2023-02-19T08:09:34.480Z,0.60
2023-02-19T08:12:56.686Z,0.90
2023-02-19T08:16:16.006Z,1.50
2023-02-19T08:19:21.950Z,0.90
2023-02-19T08:22:24.615Z,1.60
2023-02-19T08:25:27.336Z,1.83
2023-02-19T08:28:30.780Z,1.73
2023-02-19T08:31:35.132Z,1.23
2023-02-19T08:34:38.009Z,1.00
2023-02-19T08:37:40.633Z,1.20
2023-02-19T08:40:43.761Z,1.08
2023-02-19T08:43:47.832Z,2.65
2023-02-19T08:46:50.480Z,1.53
2023-02-19T08:49:53.258Z,0.93
2023-02-19T08:52:56.228Z,1.20
2023-02-19T08:56:00.309Z,0.60
2023-02-19T08:59:02.969Z,1.13
2023-02-19T09:02:05.600Z,0.97
2023-02-19T09:05:08.346Z,1.83
2023-02-19T09:08:12.771Z,1.33
2023-02-19T09:11:15.613Z,1.70
2023-02-19T09:14:18.196Z,2.13
2023-02-19T09:17:21.044Z,2.17
2023-02-19T09:20:24.627Z,2.40
2023-02-19T09:23:27.315Z,2.75
2023-02-19T09:26:29.958Z,4.28
2023-02-19T09:29:34.498Z,7.40
2023-02-19T09:32:37.031Z,8.17
2023-02-19T09:35:42.356Z,7.90
2023-02-19T09:38:45.947Z,11.05
2023-02-19T09:41:53.845Z,7.72
2023-02-19T09:44:59.935Z,7.28
2023-02-19T09:48:06.307Z,7.70
2023-02-19T09:51:11.297Z,10.00
2023-02-19T09:54:22.755Z,7.72
2023-02-19T09:57:28.267Z,8.98
2023-02-19T10:00:35.110Z,7.80
2023-02-19T10:03:43.768Z,9.13
2023-02-19T10:06:47.658Z,9.07
2023-02-19T10:10:18.816Z,11.05
2023-02-19T10:13:36.129Z,10.05
2023-02-19T10:16:42.304Z,7.03
2023-02-19T10:19:45.002Z,8.33
2023-02-19T10:22:49.085Z,8.43
2023-02-19T10:25:57.186Z,7.85
2023-02-19T10:29:00.077Z,8.18
2023-02-19T10:32:13.988Z,9.68
2023-02-19T10:35:16.786Z,7.07
2023-02-19T10:38:21.496Z,7.87
2023-02-19T10:41:27.977Z,6.22
2023-02-19T10:44:39.392Z,7.00
2023-02-19T10:47:47.023Z,6.30
2023-02-19T10:50:58.214Z,4.90
2023-02-19T10:54:17.016Z,5.17
2023-02-19T10:57:19.582Z,5.38
2023-02-19T11:00:30.912Z,3.67
2023-02-19T11:03:33.530Z,4.43
2023-02-19T11:06:36.165Z,5.00
2023-02-19T11:09:43.918Z,4.60
2023-02-19T11:12:49.221Z,4.22
2023-02-19T11:15:55.957Z,3.17
2023-02-19T11:18:58.816Z,3.20
2023-02-19T11:22:02.368Z,3.13
2023-02-19T11:25:19.403Z,2.00
2023-02-19T11:28:38.906Z,3.15
2023-02-19T11:31:42.877Z,2.90
2023-02-19T11:34:46.725Z,2.45
2023-02-19T11:38:10.951Z,2.63
2023-02-19T11:41:58.015Z,2.27
2023-02-19T11:45:08.310Z,3.38
2023-02-19T11:48:36.251Z,2.20
2023-02-19T11:52:12.674Z,2.60
2023-02-19T11:55:59.151Z,1.63
2023-02-19T11:59:09.795Z,2.27
2023-02-19T12:02:41.124Z,1.60
2023-02-19T12:06:04.800Z,1.95
2023-02-19T12:09:43.886Z,1.90
2023-02-19T12:13:04.493Z,2.13
2023-02-19T12:16:25.099Z,1.40
2023-02-19T12:20:02.118Z,1.60
2023-02-19T12:23:39.737Z,1.92
2023-02-19T12:26:50.597Z,1.35
2023-02-19T12:30:23.082Z,1.50
2023-02-19T12:33:48.037Z,1.60
2023-02-19T12:37:19.036Z,1.70
2023-02-19T12:40:42.591Z,2.15
2023-02-19T12:44:00.771Z,1.95
2023-02-19T12:47:06.916Z,1.97
2023-02-19T12:50:39.302Z,1.83
2023-02-19T12:54:02.667Z,2.00
2023-02-19T12:57:21.486Z,2.05
2023-02-19T13:00:47.059Z,1.80
2023-02-19T13:04:06.141Z,1.53
2023-02-19T13:07:17.627Z,1.30
2023-02-19T13:10:33.899Z,1.38
2023-02-19T13:13:44.380Z,1.20
2023-02-19T13:16:50.968Z,1.05
2023-02-19T13:20:03.390Z,0.70
2023-02-19T13:23:36.621Z,0.43
2023-02-19T13:26:52.227Z,1.15
2023-02-19T13:29:54.927Z,0.70
2023-02-19T13:33:25.258Z,0.73
2023-02-19T13:36:29.812Z,0.50
2023-02-19T13:39:33.498Z,0.80
2023-02-19T13:42:36.835Z,0.57
2023-02-19T13:45:43.307Z,1.25
2023-02-19T13:48:46.111Z,1.20
2023-02-19T13:51:57.109Z,0.57
2023-02-19T13:55:40.745Z,0.50
2023-02-19T13:58:54.618Z,0.80
2023-02-19T14:02:00.625Z,1.92
2023-02-19T14:05:11.499Z,0.40
2023-02-19T14:08:52.877Z,1.17
2023-02-19T14:12:13.729Z,0.60
2023-02-19T14:15:36.937Z,0.95
2023-02-19T14:18:45.101Z,0.63
2023-02-19T14:21:47.666Z,0.10
2023-02-19T14:24:53.382Z,1.17
2023-02-19T14:28:02.475Z,0.20
2023-02-19T14:31:18.019Z,0.70
2023-02-19T14:34:25.401Z,0.57
2023-02-19T14:37:27.961Z,0.30
2023-02-19T14:40:41.706Z,0.10
2023-02-19T14:43:47.501Z,0.33
2023-02-19T14:46:58.970Z,0.30
2023-02-19T14:50:07.283Z,0.20
2023-02-19T14:53:10.291Z,0.30
2023-02-19T14:56:23.820Z,0.20
2023-02-19T14:59:28.808Z,0.43
2023-02-19T15:02:32.567Z,0.60
2023-02-19T15:05:38.211Z,0.20
2023-02-19T15:08:46.613Z,0.30
2023-02-19T15:11:49.382Z,0.60
2023-02-19T15:14:56.744Z,0.70
2023-02-19T15:18:01.518Z,0.15
2023-02-19T15:21:06.894Z,0.50
2023-02-19T15:24:14.284Z,1.25
2023-02-19T15:27:22.702Z,0.30
2023-02-19T15:30:31.514Z,0.30
2023-02-19T15:33:35.002Z,0.30
2023-02-19T15:36:37.821Z,0.43
2023-02-19T15:39:45.058Z,0.63
2023-02-19T15:42:48.011Z,0.30
2023-02-19T15:45:52.544Z,0.57
2023-02-19T15:49:11.492Z,0.57
2023-02-19T15:52:36.431Z,0.28
2023-02-19T15:55:57.999Z,0.65
2023-02-19T15:59:27.519Z,0.63
2023-02-19T16:02:30.540Z,0.30
2023-02-19T16:05:39.359Z,1.05
2023-02-19T16:08:45.550Z,0.60
2023-02-19T16:11:54.681Z,0.70
2023-02-19T16:14:57.984Z,2.53
2023-02-19T16:18:02.186Z,0.70
2023-02-19T16:21:09.288Z,0.70
2023-02-19T16:24:36.857Z,0.55
2023-02-19T16:27:43.074Z,1.05
2023-02-19T16:30:45.820Z,1.93
2023-02-19T16:33:50.062Z,0.60
2023-02-19T16:36:52.607Z,0.32
2023-02-19T16:40:21.433Z,0.63
2023-02-19T16:43:39.298Z,0.40
2023-02-19T16:46:42.006Z,0.53
2023-02-19T16:49:44.854Z,1.03
2023-02-19T16:52:54.511Z,0.28
2023-02-19T16:55:56.937Z,0.40
2023-02-19T16:58:59.836Z,0.30
2023-02-19T17:02:05.650Z,0.27
2023-02-19T17:05:08.507Z,1.00
2023-02-19T17:08:37.394Z,0.50
2023-02-19T17:11:40.316Z,0.73
2023-02-19T17:14:43.150Z,0.60
2023-02-19T17:17:45.946Z,0.87
2023-02-19T17:20:54.420Z,0.40
2023-02-19T17:23:57.429Z,0.68
2023-02-19T17:27:00.590Z,0.35
2023-02-19T17:30:04.228Z,0.68
2023-02-19T17:33:07.572Z,1.70
2023-02-19T17:36:23.836Z,1.60
2023-02-19T17:39:27.789Z,0.20
2023-02-19T17:42:30.546Z,0.30
2023-02-19T17:45:33.765Z,1.20
2023-02-19T17:48:36.416Z,0.20
2023-02-19T17:51:39.583Z,0.57
2023-02-19T17:54:43.248Z,1.27
2023-02-19T17:57:47.880Z,0.32
2023-02-19T18:00:51.044Z,0.70
2023-02-19T18:03:54.484Z,1.03
2023-02-19T18:06:57.434Z,0.37
2023-02-19T18:10:00.171Z,0.20
2023-02-19T18:13:03.395Z,0.20
2023-02-19T18:16:06.783Z,0.30
2023-02-19T18:19:09.881Z,0.30
2023-02-19T18:22:12.652Z,0.50
2023-02-19T18:25:17.388Z,0.22
2023-02-19T18:28:21.323Z,0.38
2023-02-19T18:31:24.135Z,2.05
2023-02-19T18:34:27.019Z,0.83
2023-02-19T18:37:32.480Z,0.30
2023-02-19T18:40:36.362Z,0.60
2023-02-19T18:43:41.397Z,0.52
2023-02-19T18:46:44.558Z,1.35
2023-02-19T18:49:48.633Z,0.70
2023-02-19T18:52:51.827Z,0.60
2023-02-19T18:55:56.899Z,0.60
2023-02-19T18:59:00.466Z,0.80
2023-02-19T19:02:05.095Z,0.75
2023-02-19T19:05:08.980Z,0.57
2023-02-19T19:08:11.661Z,1.23
2023-02-19T19:11:14.277Z,0.90
2023-02-19T19:14:17.007Z,0.73
2023-02-19T19:17:21.810Z,0.63
2023-02-19T19:20:24.689Z,1.00
2023-02-19T19:23:27.606Z,1.23
2023-02-19T19:26:30.701Z,0.70
2023-02-19T19:29:34.297Z,0.77
2023-02-19T19:32:37.862Z,0.93
2023-02-19T19:35:40.624Z,0.90
2023-02-19T19:38:43.621Z,0.90
2023-02-19T19:41:47.094Z,0.88
2023-02-19T19:44:49.925Z,0.80
2023-02-19T19:47:53.119Z,1.00
2023-02-19T19:50:57.173Z,1.20
2023-02-19T19:54:01.186Z,0.70
2023-02-19T19:57:03.825Z,1.50
2023-02-19T20:00:07.342Z,1.20
2023-02-19T20:03:19.046Z,1.10
2023-02-19T20:06:30.816Z,1.40
2023-02-19T20:09:33.829Z,1.93
2023-02-19T20:12:36.579Z,1.75
2023-02-19T20:15:39.424Z,0.95
2023-02-19T20:18:41.964Z,1.67
2023-02-19T20:21:49.116Z,1.20
2023-02-19T20:24:52.985Z,1.23
2023-02-19T20:27:56.201Z,1.13
2023-02-19T20:30:59.000Z,0.75
2023-02-19T20:34:02.222Z,0.85
2023-02-19T20:37:05.706Z,1.50
2023-02-19T20:40:10.738Z,2.10
2023-02-19T20:43:13.426Z,0.93
2023-02-19T20:46:16.431Z,0.73
2023-02-19T20:49:21.609Z,1.15
2023-02-19T20:52:24.879Z,0.97
2023-02-19T20:55:28.088Z,0.70
2023-02-19T20:58:31.957Z,1.00
2023-02-19T21:01:34.813Z,1.00
2023-02-19T21:04:39.023Z,0.98
2023-02-19T21:07:41.711Z,0.83
2023-02-19T21:10:46.527Z,0.77
2023-02-19T21:13:49.348Z,2.80
2023-02-19T21:16:52.436Z,1.00
2023-02-19T21:19:55.172Z,1.08
2023-02-19T21:22:58.076Z,1.57
2023-02-19T21:26:03.068Z,1.20
2023-02-19T21:29:07.676Z,0.73
2023-02-19T21:32:11.170Z,1.30
2023-02-19T21:35:13.695Z,0.90
2023-02-19T21:38:16.184Z,1.33
2023-02-19T21:41:18.873Z,2.27
2023-02-19T21:44:21.772Z,1.15
2023-02-19T21:47:24.319Z,1.35
2023-02-19T21:50:27.145Z,2.25
2023-02-19T21:53:29.794Z,1.07
2023-02-19T21:56:36.217Z,1.10
2023-02-19T21:59:39.756Z,1.73
2023-02-19T22:02:43.098Z,2.30
2023-02-19T22:05:45.597Z,1.08
2023-02-19T22:08:48.180Z,1.20
2023-02-19T22:11:50.990Z,2.30
2023-02-19T22:14:53.414Z,1.40
2023-02-19T22:17:55.898Z,1.13
2023-02-19T22:20:58.668Z,1.23
2023-02-19T22:24:02.884Z,2.90
2023-02-19T22:27:05.532Z,2.60
2023-02-19T22:30:10.056Z,1.83
2023-02-19T22:33:13.685Z,1.55
2023-02-19T22:36:24.709Z,2.15
2023-02-19T22:39:27.231Z,1.13
2023-02-19T22:42:29.725Z,1.80
2023-02-19T22:45:32.279Z,1.80
2023-02-19T22:48:34.792Z,2.15
2023-02-19T22:51:37.513Z,1.33
2023-02-19T22:54:40.255Z,1.10
2023-02-19T22:57:42.642Z,1.23
2023-02-19T23:00:46.636Z,2.30
2023-02-19T23:03:52.126Z,1.98
2023-02-19T23:06:55.251Z,1.05
2023-02-19T23:09:57.892Z,1.93
2023-02-19T23:13:00.517Z,2.67
2023-02-19T23:16:04.732Z,2.00
2023-02-19T23:19:12.607Z,1.58
2023-02-19T23:22:15.169Z,2.87
2023-02-19T23:25:17.733Z,4.00
2023-02-19T23:28:20.612Z,1.38
2023-02-19T23:31:23.596Z,1.70
2023-02-19T23:34:26.246Z,2.72
2023-02-19T23:37:28.812Z,1.53
2023-02-19T23:40:31.721Z,1.77
2023-02-19T23:43:34.166Z,1.98
2023-02-19T23:46:36.784Z,1.35
2023-02-19T23:49:39.236Z,1.63
2023-02-19T23:52:42.206Z,2.30
2023-02-19T23:55:44.732Z,4.10
2023-02-19T23:58:47.322Z,1.48
